sensor_id;sensor_type;location;lat;lon;timestamp;P1;durP1;ratioP1;P2;durP2;ratioP2
41255;SDS011;26989;45.524;10.938;2022-12-26T00:01:55;24.85;;;17.65;;
41255;SDS011;26989;45.524;10.938;2022-12-26T00:04:25;28.27;;;19.80;;
41255;SDS011;26989;45.524;10.938;2022-12-26T00:07:13;25.27;;;17.98;;
41255;SDS011;26989;45.524;10.938;2022-12-26T00:09:40;28.25;;;19.48;;
41255;SDS011;26989;45.524;10.938;2022-12-26T00:12:06;31.15;;;20.58;;
41255;SDS011;26989;45.524;10.938;2022-12-26T00:14:33;27.40;;;18.55;;
41255;SDS011;26989;45.524;10.938;2022-12-26T00:17:00;24.27;;;18.20;;
41255;SDS011;26989;45.524;10.938;2022-12-26T00:19:27;23.55;;;16.80;;
41255;SDS011;26989;45.524;10.938;2022-12-26T00:21:54;28.38;;;19.00;;
41255;SDS011;26989;45.524;10.938;2022-12-26T00:24:22;27.35;;;19.05;;
41255;SDS011;26989;45.524;10.938;2022-12-26T00:26:49;24.85;;;18.25;;
41255;SDS011;26989;45.524;10.938;2022-12-26T00:29:16;25.27;;;16.80;;
41255;SDS011;26989;45.524;10.938;2022-12-26T00:31:43;25.75;;;18.33;;
41255;SDS011;26989;45.524;10.938;2022-12-26T00:34:10;26.15;;;18.95;;
41255;SDS011;26989;45.524;10.938;2022-12-26T00:36:37;28.05;;;18.77;;
41255;SDS011;26989;45.524;10.938;2022-12-26T00:39:04;24.05;;;17.73;;
41255;SDS011;26989;45.524;10.938;2022-12-26T00:41:31;29.08;;;18.67;;
41255;SDS011;26989;45.524;10.938;2022-12-26T00:44:00;25.45;;;18.70;;
41255;SDS011;26989;45.524;10.938;2022-12-26T00:46:27;27.92;;;18.77;;
41255;SDS011;26989;45.524;10.938;2022-12-26T00:48:54;27.00;;;18.98;;
41255;SDS011;26989;45.524;10.938;2022-12-26T00:51:21;24.65;;;18.75;;
41255;SDS011;26989;45.524;10.938;2022-12-26T00:53:48;28.50;;;18.95;;
41255;SDS011;26989;45.524;10.938;2022-12-26T00:56:15;27.42;;;18.02;;
41255;SDS011;26989;45.524;10.938;2022-12-26T00:58:42;24.88;;;17.75;;
41255;SDS011;26989;45.524;10.938;2022-12-26T01:01:14;25.23;;;17.65;;
41255;SDS011;26989;45.524;10.938;2022-12-26T01:03:45;29.20;;;18.63;;
41255;SDS011;26989;45.524;10.938;2022-12-26T01:06:13;21.50;;;17.42;;
41255;SDS011;26989;45.524;10.938;2022-12-26T01:08:41;24.92;;;18.08;;
41255;SDS011;26989;45.524;10.938;2022-12-26T01:11:09;25.83;;;18.38;;
41255;SDS011;26989;45.524;10.938;2022-12-26T01:13:38;23.13;;;15.70;;
41255;SDS011;26989;45.524;10.938;2022-12-26T01:16:06;25.23;;;17.50;;
41255;SDS011;26989;45.524;10.938;2022-12-26T01:18:34;23.85;;;17.33;;
41255;SDS011;26989;45.524;10.938;2022-12-26T01:21:02;25.67;;;17.90;;
41255;SDS011;26989;45.524;10.938;2022-12-26T01:23:31;24.08;;;17.42;;
41255;SDS011;26989;45.524;10.938;2022-12-26T01:25:58;23.50;;;17.10;;
41255;SDS011;26989;45.524;10.938;2022-12-26T01:28:46;24.42;;;17.25;;
41255;SDS011;26989;45.524;10.938;2022-12-26T01:31:13;22.40;;;16.70;;
41255;SDS011;26989;45.524;10.938;2022-12-26T01:33:41;24.08;;;16.70;;
41255;SDS011;26989;45.524;10.938;2022-12-26T01:36:07;24.52;;;17.15;;
41255;SDS011;26989;45.524;10.938;2022-12-26T01:38:35;21.10;;;16.33;;
41255;SDS011;26989;45.524;10.938;2022-12-26T01:41:02;22.38;;;16.88;;
41255;SDS011;26989;45.524;10.938;2022-12-26T01:46:19;22.88;;;17.58;;
41255;SDS011;26989;45.524;10.938;2022-12-26T01:48:51;21.77;;;16.00;;
41255;SDS011;26989;45.524;10.938;2022-12-26T01:51:20;24.35;;;16.40;;
41255;SDS011;26989;45.524;10.938;2022-12-26T01:53:51;25.15;;;17.92;;
41255;SDS011;26989;45.524;10.938;2022-12-26T01:56:42;30.63;;;18.55;;
41255;SDS011;26989;45.524;10.938;2022-12-26T01:59:19;27.02;;;18.02;;
41255;SDS011;26989;45.524;10.938;2022-12-26T02:01:50;30.20;;;18.10;;
41255;SDS011;26989;45.524;10.938;2022-12-26T02:04:21;25.60;;;18.52;;
41255;SDS011;26989;45.524;10.938;2022-12-26T02:07:11;25.15;;;18.17;;
41255;SDS011;26989;45.524;10.938;2022-12-26T02:09:38;25.67;;;17.83;;
41255;SDS011;26989;45.524;10.938;2022-12-26T02:12:07;25.13;;;18.95;;
41255;SDS011;26989;45.524;10.938;2022-12-26T02:15:00;27.25;;;19.08;;
41255;SDS011;26989;45.524;10.938;2022-12-26T02:17:30;26.00;;;18.73;;
41255;SDS011;26989;45.524;10.938;2022-12-26T02:29:06;29.45;;;18.65;;
41255;SDS011;26989;45.524;10.938;2022-12-26T02:34:26;31.13;;;21.63;;
41255;SDS011;26989;45.524;10.938;2022-12-26T02:42:58;31.65;;;20.35;;
41255;SDS011;26989;45.524;10.938;2022-12-26T02:45:42;30.77;;;21.77;;
41255;SDS011;26989;45.524;10.938;2022-12-26T02:51:06;29.70;;;20.73;;
41255;SDS011;26989;45.524;10.938;2022-12-26T02:57:08;29.58;;;19.83;;
41255;SDS011;26989;45.524;10.938;2022-12-26T03:00:03;29.20;;;20.30;;
41255;SDS011;26989;45.524;10.938;2022-12-26T03:02:54;26.80;;;19.67;;
41255;SDS011;26989;45.524;10.938;2022-12-26T03:05:53;27.65;;;19.60;;
41255;SDS011;26989;45.524;10.938;2022-12-26T03:08:51;28.77;;;18.83;;
41255;SDS011;26989;45.524;10.938;2022-12-26T03:11:50;29.63;;;20.08;;
41255;SDS011;26989;45.524;10.938;2022-12-26T03:14:44;29.77;;;20.13;;
41255;SDS011;26989;45.524;10.938;2022-12-26T03:17:26;26.75;;;18.65;;
41255;SDS011;26989;45.524;10.938;2022-12-26T03:20:05;27.35;;;18.38;;
41255;SDS011;26989;45.524;10.938;2022-12-26T03:22:40;28.85;;;19.27;;
41255;SDS011;26989;45.524;10.938;2022-12-26T03:25:13;24.85;;;18.75;;
41255;SDS011;26989;45.524;10.938;2022-12-26T03:28:05;27.60;;;18.60;;
41255;SDS011;26989;45.524;10.938;2022-12-26T03:30:32;26.48;;;18.02;;
41255;SDS011;26989;45.524;10.938;2022-12-26T03:33:15;25.23;;;18.15;;
41255;SDS011;26989;45.524;10.938;2022-12-26T03:36:04;29.35;;;18.83;;
41255;SDS011;26989;45.524;10.938;2022-12-26T03:44:39;23.42;;;17.77;;
41255;SDS011;26989;45.524;10.938;2022-12-26T03:47:36;24.08;;;17.63;;
41255;SDS011;26989;45.524;10.938;2022-12-26T03:50:33;26.35;;;17.27;;
41255;SDS011;26989;45.524;10.938;2022-12-26T03:53:36;26.70;;;18.67;;
41255;SDS011;26989;45.524;10.938;2022-12-26T03:56:30;25.52;;;18.85;;
41255;SDS011;26989;45.524;10.938;2022-12-26T03:59:22;31.30;;;19.35;;
41255;SDS011;26989;45.524;10.938;2022-12-26T04:02:12;27.10;;;17.45;;
41255;SDS011;26989;45.524;10.938;2022-12-26T04:05:00;27.67;;;17.80;;
41255;SDS011;26989;45.524;10.938;2022-12-26T04:07:50;25.85;;;18.70;;
41255;SDS011;26989;45.524;10.938;2022-12-26T04:10:46;27.70;;;19.33;;
41255;SDS011;26989;45.524;10.938;2022-12-26T04:16:37;24.65;;;18.40;;
41255;SDS011;26989;45.524;10.938;2022-12-26T04:19:34;26.92;;;18.80;;
41255;SDS011;26989;45.524;10.938;2022-12-26T04:22:26;28.23;;;18.67;;
41255;SDS011;26989;45.524;10.938;2022-12-26T04:28:16;27.63;;;19.15;;
41255;SDS011;26989;45.524;10.938;2022-12-26T04:31:13;30.25;;;19.45;;
41255;SDS011;26989;45.524;10.938;2022-12-26T04:34:06;26.17;;;18.85;;
41255;SDS011;26989;45.524;10.938;2022-12-26T04:36:55;27.25;;;19.30;;
41255;SDS011;26989;45.524;10.938;2022-12-26T04:39:46;26.73;;;19.52;;
41255;SDS011;26989;45.524;10.938;2022-12-26T04:42:35;28.63;;;18.75;;
41255;SDS011;26989;45.524;10.938;2022-12-26T04:45:21;25.10;;;19.48;;
41255;SDS011;26989;45.524;10.938;2022-12-26T04:47:49;26.17;;;19.02;;
41255;SDS011;26989;45.524;10.938;2022-12-26T04:50:35;26.02;;;19.67;;
41255;SDS011;26989;45.524;10.938;2022-12-26T04:53:02;25.58;;;19.00;;
41255;SDS011;26989;45.524;10.938;2022-12-26T04:55:32;27.65;;;19.45;;
41255;SDS011;26989;45.524;10.938;2022-12-26T04:58:01;27.92;;;19.42;;
41255;SDS011;26989;45.524;10.938;2022-12-26T05:00:27;29.05;;;20.50;;
41255;SDS011;26989;45.524;10.938;2022-12-26T05:02:54;24.30;;;18.83;;
41255;SDS011;26989;45.524;10.938;2022-12-26T05:05:45;29.65;;;19.45;;
41255;SDS011;26989;45.524;10.938;2022-12-26T05:08:35;26.42;;;18.70;;
41255;SDS011;26989;45.524;10.938;2022-12-26T05:11:22;29.55;;;20.45;;
41255;SDS011;26989;45.524;10.938;2022-12-26T05:13:52;26.38;;;19.40;;
41255;SDS011;26989;45.524;10.938;2022-12-26T05:16:20;27.00;;;19.40;;
41255;SDS011;26989;45.524;10.938;2022-12-26T05:19:08;26.33;;;19.38;;
41255;SDS011;26989;45.524;10.938;2022-12-26T05:21:55;30.08;;;19.70;;
41255;SDS011;26989;45.524;10.938;2022-12-26T05:24:41;28.48;;;19.83;;
41255;SDS011;26989;45.524;10.938;2022-12-26T05:27:32;29.10;;;20.02;;
41255;SDS011;26989;45.524;10.938;2022-12-26T05:30:21;30.38;;;20.30;;
41255;SDS011;26989;45.524;10.938;2022-12-26T05:32:48;28.00;;;20.48;;
41255;SDS011;26989;45.524;10.938;2022-12-26T05:35:34;29.65;;;20.10;;
41255;SDS011;26989;45.524;10.938;2022-12-26T05:38:02;28.92;;;20.23;;
41255;SDS011;26989;45.524;10.938;2022-12-26T05:40:29;28.48;;;20.35;;
41255;SDS011;26989;45.524;10.938;2022-12-26T05:42:56;28.58;;;19.85;;
41255;SDS011;26989;45.524;10.938;2022-12-26T05:45:23;30.33;;;20.42;;
41255;SDS011;26989;45.524;10.938;2022-12-26T05:47:55;28.80;;;20.35;;
41255;SDS011;26989;45.524;10.938;2022-12-26T05:50:25;27.70;;;20.00;;
41255;SDS011;26989;45.524;10.938;2022-12-26T05:52:55;26.67;;;18.92;;
41255;SDS011;26989;45.524;10.938;2022-12-26T05:55:23;28.88;;;20.35;;
41255;SDS011;26989;45.524;10.938;2022-12-26T05:57:50;28.25;;;20.10;;
41255;SDS011;26989;45.524;10.938;2022-12-26T06:00:17;26.95;;;18.88;;
41255;SDS011;26989;45.524;10.938;2022-12-26T06:02:44;30.38;;;20.85;;
41255;SDS011;26989;45.524;10.938;2022-12-26T06:05:11;26.80;;;19.83;;
41255;SDS011;26989;45.524;10.938;2022-12-26T06:07:38;27.80;;;19.90;;
41255;SDS011;26989;45.524;10.938;2022-12-26T06:10:05;27.02;;;20.02;;
41255;SDS011;26989;45.524;10.938;2022-12-26T06:12:33;29.88;;;19.85;;
41255;SDS011;26989;45.524;10.938;2022-12-26T06:15:00;28.98;;;19.65;;
41255;SDS011;26989;45.524;10.938;2022-12-26T06:17:27;29.20;;;20.73;;
41255;SDS011;26989;45.524;10.938;2022-12-26T06:19:54;30.38;;;20.88;;
41255;SDS011;26989;45.524;10.938;2022-12-26T06:22:21;30.50;;;21.60;;
41255;SDS011;26989;45.524;10.938;2022-12-26T06:24:48;27.58;;;19.73;;
41255;SDS011;26989;45.524;10.938;2022-12-26T06:27:15;27.52;;;18.60;;
41255;SDS011;26989;45.524;10.938;2022-12-26T06:29:42;29.02;;;19.98;;
41255;SDS011;26989;45.524;10.938;2022-12-26T06:32:09;29.17;;;20.42;;
41255;SDS011;26989;45.524;10.938;2022-12-26T06:34:36;25.88;;;18.95;;
41255;SDS011;26989;45.524;10.938;2022-12-26T06:37:02;26.42;;;19.15;;
41255;SDS011;26989;45.524;10.938;2022-12-26T06:39:29;33.63;;;20.35;;
41255;SDS011;26989;45.524;10.938;2022-12-26T06:41:56;31.75;;;20.77;;
41255;SDS011;26989;45.524;10.938;2022-12-26T06:44:23;31.02;;;21.05;;
41255;SDS011;26989;45.524;10.938;2022-12-26T06:46:50;30.90;;;21.30;;
41255;SDS011;26989;45.524;10.938;2022-12-26T06:49:17;32.50;;;22.02;;
41255;SDS011;26989;45.524;10.938;2022-12-26T06:51:44;25.08;;;19.60;;
41255;SDS011;26989;45.524;10.938;2022-12-26T06:54:11;26.08;;;19.10;;
41255;SDS011;26989;45.524;10.938;2022-12-26T06:56:38;27.30;;;19.95;;
41255;SDS011;26989;45.524;10.938;2022-12-26T06:59:05;28.58;;;20.60;;
41255;SDS011;26989;45.524;10.938;2022-12-26T07:01:33;28.65;;;20.23;;
41255;SDS011;26989;45.524;10.938;2022-12-26T07:04:00;32.75;;;20.45;;
41255;SDS011;26989;45.524;10.938;2022-12-26T07:06:31;28.20;;;20.40;;
41255;SDS011;26989;45.524;10.938;2022-12-26T07:09:09;29.48;;;20.70;;
41255;SDS011;26989;45.524;10.938;2022-12-26T07:11:40;31.50;;;21.08;;
41255;SDS011;26989;45.524;10.938;2022-12-26T07:14:09;28.63;;;21.08;;
41255;SDS011;26989;45.524;10.938;2022-12-26T07:16:36;30.13;;;20.60;;
41255;SDS011;26989;45.524;10.938;2022-12-26T07:19:04;29.25;;;21.48;;
41255;SDS011;26989;45.524;10.938;2022-12-26T07:21:33;36.22;;;21.67;;
41255;SDS011;26989;45.524;10.938;2022-12-26T07:24:06;32.42;;;20.50;;
41255;SDS011;26989;45.524;10.938;2022-12-26T07:26:39;31.13;;;22.15;;
41255;SDS011;26989;45.524;10.938;2022-12-26T07:29:06;29.85;;;21.95;;
41255;SDS011;26989;45.524;10.938;2022-12-26T07:31:35;32.10;;;22.40;;
41255;SDS011;26989;45.524;10.938;2022-12-26T07:34:02;34.83;;;24.20;;
41255;SDS011;26989;45.524;10.938;2022-12-26T07:36:29;38.53;;;25.58;;
41255;SDS011;26989;45.524;10.938;2022-12-26T07:38:56;36.17;;;24.45;;
41255;SDS011;26989;45.524;10.938;2022-12-26T07:41:23;30.83;;;23.10;;
41255;SDS011;26989;45.524;10.938;2022-12-26T07:44:09;35.70;;;24.20;;
41255;SDS011;26989;45.524;10.938;2022-12-26T07:46:36;36.35;;;25.85;;
41255;SDS011;26989;45.524;10.938;2022-12-26T07:49:03;41.45;;;27.85;;
41255;SDS011;26989;45.524;10.938;2022-12-26T07:51:30;44.10;;;29.35;;
41255;SDS011;26989;45.524;10.938;2022-12-26T07:53:57;41.95;;;28.42;;
41255;SDS011;26989;45.524;10.938;2022-12-26T07:56:32;40.17;;;26.95;;
41255;SDS011;26989;45.524;10.938;2022-12-26T07:58:59;46.25;;;28.67;;
41255;SDS011;26989;45.524;10.938;2022-12-26T08:01:26;40.78;;;26.88;;
41255;SDS011;26989;45.524;10.938;2022-12-26T08:03:53;39.83;;;26.52;;
41255;SDS011;26989;45.524;10.938;2022-12-26T08:06:21;40.03;;;26.42;;
41255;SDS011;26989;45.524;10.938;2022-12-26T08:08:49;42.10;;;27.58;;
41255;SDS011;26989;45.524;10.938;2022-12-26T08:11:20;38.60;;;27.05;;
41255;SDS011;26989;45.524;10.938;2022-12-26T08:13:49;38.38;;;26.50;;
41255;SDS011;26989;45.524;10.938;2022-12-26T08:16:19;41.17;;;27.00;;
41255;SDS011;26989;45.524;10.938;2022-12-26T08:18:46;38.95;;;25.65;;
41255;SDS011;26989;45.524;10.938;2022-12-26T08:21:13;36.90;;;25.17;;
41255;SDS011;26989;45.524;10.938;2022-12-26T08:23:40;33.42;;;24.92;;
41255;SDS011;26989;45.524;10.938;2022-12-26T08:26:10;34.63;;;24.38;;
41255;SDS011;26989;45.524;10.938;2022-12-26T08:28:38;37.65;;;25.20;;
41255;SDS011;26989;45.524;10.938;2022-12-26T08:31:06;36.50;;;24.50;;
41255;SDS011;26989;45.524;10.938;2022-12-26T08:33:34;34.15;;;24.15;;
41255;SDS011;26989;45.524;10.938;2022-12-26T08:36:04;35.25;;;24.23;;
41255;SDS011;26989;45.524;10.938;2022-12-26T08:38:33;37.17;;;24.20;;
41255;SDS011;26989;45.524;10.938;2022-12-26T08:41:00;35.95;;;24.13;;
41255;SDS011;26989;45.524;10.938;2022-12-26T08:43:27;34.15;;;24.30;;
41255;SDS011;26989;45.524;10.938;2022-12-26T08:46:14;36.35;;;23.65;;
41255;SDS011;26989;45.524;10.938;2022-12-26T08:48:42;34.95;;;24.08;;
41255;SDS011;26989;45.524;10.938;2022-12-26T08:51:11;35.88;;;23.88;;
41255;SDS011;26989;45.524;10.938;2022-12-26T08:53:46;32.80;;;22.58;;
41255;SDS011;26989;45.524;10.938;2022-12-26T08:56:15;37.35;;;24.63;;
41255;SDS011;26989;45.524;10.938;2022-12-26T08:58:44;35.72;;;23.42;;
41255;SDS011;26989;45.524;10.938;2022-12-26T09:03:41;36.00;;;25.38;;
41255;SDS011;26989;45.524;10.938;2022-12-26T09:06:09;39.95;;;25.20;;
41255;SDS011;26989;45.524;10.938;2022-12-26T09:08:37;43.70;;;26.80;;
41255;SDS011;26989;45.524;10.938;2022-12-26T09:11:13;35.90;;;25.05;;
41255;SDS011;26989;45.524;10.938;2022-12-26T09:13:45;35.10;;;25.52;;
41255;SDS011;26989;45.524;10.938;2022-12-26T09:16:14;37.55;;;24.60;;
41255;SDS011;26989;45.524;10.938;2022-12-26T09:18:43;43.03;;;28.67;;
41255;SDS011;26989;45.524;10.938;2022-12-26T09:21:11;37.97;;;25.30;;
41255;SDS011;26989;45.524;10.938;2022-12-26T09:23:39;43.55;;;27.02;;
41255;SDS011;26989;45.524;10.938;2022-12-26T09:26:11;43.10;;;27.02;;
41255;SDS011;26989;45.524;10.938;2022-12-26T09:28:43;41.17;;;26.27;;
41255;SDS011;26989;45.524;10.938;2022-12-26T09:31:13;36.58;;;25.58;;
41255;SDS011;26989;45.524;10.938;2022-12-26T09:33:42;34.22;;;24.63;;
41255;SDS011;26989;45.524;10.938;2022-12-26T09:36:11;34.85;;;24.90;;
41255;SDS011;26989;45.524;10.938;2022-12-26T09:38:43;35.15;;;24.38;;
41255;SDS011;26989;45.524;10.938;2022-12-26T09:45:03;38.17;;;26.08;;
41255;SDS011;26989;45.524;10.938;2022-12-26T09:50:03;37.42;;;26.35;;
41255;SDS011;26989;45.524;10.938;2022-12-26T10:00:49;49.97;;;30.38;;
41255;SDS011;26989;45.524;10.938;2022-12-26T10:03:47;50.08;;;32.20;;
41255;SDS011;26989;45.524;10.938;2022-12-26T10:06:40;50.42;;;33.97;;
41255;SDS011;26989;45.524;10.938;2022-12-26T10:23:16;49.78;;;33.28;;
41255;SDS011;26989;45.524;10.938;2022-12-26T10:26:02;46.60;;;33.10;;
41255;SDS011;26989;45.524;10.938;2022-12-26T10:31:58;51.78;;;33.85;;
41255;SDS011;26989;45.524;10.938;2022-12-26T10:42:35;49.90;;;32.65;;
41255;SDS011;26989;45.524;10.938;2022-12-26T10:48:01;54.45;;;35.70;;
41255;SDS011;26989;45.524;10.938;2022-12-26T10:50:29;59.70;;;36.33;;
41255;SDS011;26989;45.524;10.938;2022-12-26T10:52:58;53.80;;;36.45;;
41255;SDS011;26989;45.524;10.938;2022-12-26T10:55:31;52.63;;;34.97;;
41255;SDS011;26989;45.524;10.938;2022-12-26T10:58:14;51.20;;;36.72;;
41255;SDS011;26989;45.524;10.938;2022-12-26T11:00:49;55.45;;;36.40;;
41255;SDS011;26989;45.524;10.938;2022-12-26T11:03:17;60.25;;;38.13;;
41255;SDS011;26989;45.524;10.938;2022-12-26T11:05:47;56.13;;;37.17;;
41255;SDS011;26989;45.524;10.938;2022-12-26T11:08:36;56.25;;;37.08;;
41255;SDS011;26989;45.524;10.938;2022-12-26T11:11:13;61.97;;;38.78;;
41255;SDS011;26989;45.524;10.938;2022-12-26T11:13:48;60.83;;;38.08;;
41255;SDS011;26989;45.524;10.938;2022-12-26T11:19:00;54.40;;;37.40;;
41255;SDS011;26989;45.524;10.938;2022-12-26T11:21:40;57.22;;;37.85;;
41255;SDS011;26989;45.524;10.938;2022-12-26T11:26:35;63.47;;;38.13;;
41255;SDS011;26989;45.524;10.938;2022-12-26T11:31:31;56.38;;;38.00;;
41255;SDS011;26989;45.524;10.938;2022-12-26T11:34:06;53.85;;;37.30;;
41255;SDS011;26989;45.524;10.938;2022-12-26T11:36:46;54.55;;;38.63;;
41255;SDS011;26989;45.524;10.938;2022-12-26T11:39:21;53.40;;;39.13;;
41255;SDS011;26989;45.524;10.938;2022-12-26T11:41:54;52.42;;;36.30;;
41255;SDS011;26989;45.524;10.938;2022-12-26T11:44:29;49.95;;;36.03;;
41255;SDS011;26989;45.524;10.938;2022-12-26T11:49:45;55.40;;;37.33;;
41255;SDS011;26989;45.524;10.938;2022-12-26T12:01:01;50.15;;;35.78;;
41255;SDS011;26989;45.524;10.938;2022-12-26T12:06:18;58.42;;;39.45;;
41255;SDS011;26989;45.524;10.938;2022-12-26T12:09:18;57.60;;;39.03;;
41255;SDS011;26989;45.524;10.938;2022-12-26T12:17:10;56.53;;;38.90;;
41255;SDS011;26989;45.524;10.938;2022-12-26T12:19:59;65.93;;;41.42;;
41255;SDS011;26989;45.524;10.938;2022-12-26T12:27:54;63.53;;;44.33;;
41255;SDS011;26989;45.524;10.938;2022-12-26T12:30:40;69.78;;;45.53;;
41255;SDS011;26989;45.524;10.938;2022-12-26T12:33:32;69.50;;;43.70;;
41255;SDS011;26989;45.524;10.938;2022-12-26T12:38:47;72.22;;;45.95;;
41255;SDS011;26989;45.524;10.938;2022-12-26T12:49:47;79.47;;;48.80;;
41255;SDS011;26989;45.524;10.938;2022-12-26T12:52:26;73.45;;;50.08;;
41255;SDS011;26989;45.524;10.938;2022-12-26T13:00:47;77.68;;;50.80;;
41255;SDS011;26989;45.524;10.938;2022-12-26T13:06:11;91.38;;;53.95;;
41255;SDS011;26989;45.524;10.938;2022-12-26T13:09:02;87.63;;;51.63;;
41255;SDS011;26989;45.524;10.938;2022-12-26T13:11:57;91.70;;;51.55;;
41255;SDS011;26989;45.524;10.938;2022-12-26T13:26:36;81.68;;;52.22;;
41255;SDS011;26989;45.524;10.938;2022-12-26T13:29:17;87.03;;;53.38;;
41255;SDS011;26989;45.524;10.938;2022-12-26T13:34:52;91.68;;;54.30;;
41255;SDS011;26989;45.524;10.938;2022-12-26T13:40:17;86.85;;;52.28;;
41255;SDS011;26989;45.524;10.938;2022-12-26T13:42:59;88.68;;;53.95;;
41255;SDS011;26989;45.524;10.938;2022-12-26T13:45:59;88.32;;;53.90;;
41255;SDS011;26989;45.524;10.938;2022-12-26T13:51:04;95.88;;;54.65;;
41255;SDS011;26989;45.524;10.938;2022-12-26T13:53:56;88.20;;;54.13;;
41255;SDS011;26989;45.524;10.938;2022-12-26T13:58:59;80.00;;;49.85;;
41255;SDS011;26989;45.524;10.938;2022-12-26T14:05:11;78.28;;;49.35;;
41255;SDS011;26989;45.524;10.938;2022-12-26T14:11:21;82.20;;;50.30;;
41255;SDS011;26989;45.524;10.938;2022-12-26T14:45:04;82.78;;;50.72;;
41255;SDS011;26989;45.524;10.938;2022-12-26T14:47:52;84.63;;;50.55;;
41255;SDS011;26989;45.524;10.938;2022-12-26T14:50:42;86.75;;;51.70;;
41255;SDS011;26989;45.524;10.938;2022-12-26T14:58:42;87.00;;;52.13;;
41255;SDS011;26989;45.524;10.938;2022-12-26T15:20:11;99.10;;;55.45;;
41255;SDS011;26989;45.524;10.938;2022-12-26T15:39:38;107.40;;;56.85;;
41255;SDS011;26989;45.524;10.938;2022-12-26T15:54:08;114.15;;;59.78;;
41255;SDS011;26989;45.524;10.938;2022-12-26T16:02:12;128.95;;;63.95;;
41255;SDS011;26989;45.524;10.938;2022-12-26T16:04:57;120.13;;;62.17;;
41255;SDS011;26989;45.524;10.938;2022-12-26T16:07:52;122.80;;;62.42;;
41255;SDS011;26989;45.524;10.938;2022-12-26T16:10:30;117.15;;;61.10;;
41255;SDS011;26989;45.524;10.938;2022-12-26T16:15:47;120.70;;;63.50;;
41255;SDS011;26989;45.524;10.938;2022-12-26T16:18:18;133.30;;;65.18;;
41255;SDS011;26989;45.524;10.938;2022-12-26T16:20:49;129.98;;;65.18;;
41255;SDS011;26989;45.524;10.938;2022-12-26T16:23:39;134.80;;;63.88;;
41255;SDS011;26989;45.524;10.938;2022-12-26T16:26:14;125.78;;;63.97;;
41255;SDS011;26989;45.524;10.938;2022-12-26T16:28:47;122.47;;;63.42;;
41255;SDS011;26989;45.524;10.938;2022-12-26T16:31:25;129.45;;;64.45;;
41255;SDS011;26989;45.524;10.938;2022-12-26T16:33:57;135.10;;;66.15;;
41255;SDS011;26989;45.524;10.938;2022-12-26T16:36:27;128.35;;;62.92;;
41255;SDS011;26989;45.524;10.938;2022-12-26T16:38:57;127.55;;;64.75;;
41255;SDS011;26989;45.524;10.938;2022-12-26T16:41:27;125.97;;;66.00;;
41255;SDS011;26989;45.524;10.938;2022-12-26T16:44:22;129.00;;;64.95;;
41255;SDS011;26989;45.524;10.938;2022-12-26T16:46:58;137.75;;;68.50;;
41255;SDS011;26989;45.524;10.938;2022-12-26T16:52:37;136.45;;;66.68;;
41255;SDS011;26989;45.524;10.938;2022-12-26T16:58:00;134.52;;;67.47;;
41255;SDS011;26989;45.524;10.938;2022-12-26T17:00:44;131.40;;;64.32;;
41255;SDS011;26989;45.524;10.938;2022-12-26T17:03:24;135.32;;;65.80;;
41255;SDS011;26989;45.524;10.938;2022-12-26T17:06:08;124.47;;;63.13;;
41255;SDS011;26989;45.524;10.938;2022-12-26T17:08:42;127.93;;;64.85;;
41255;SDS011;26989;45.524;10.938;2022-12-26T17:11:28;185.07;;;83.95;;
41255;SDS011;26989;45.524;10.938;2022-12-26T17:13:58;145.77;;;70.63;;
41255;SDS011;26989;45.524;10.938;2022-12-26T17:16:28;182.93;;;85.25;;
41255;SDS011;26989;45.524;10.938;2022-12-26T17:24:41;137.80;;;68.50;;
41255;SDS011;26989;45.524;10.938;2022-12-26T17:27:23;137.63;;;70.22;;
41255;SDS011;26989;45.524;10.938;2022-12-26T17:29:57;134.60;;;66.97;;
41255;SDS011;26989;45.524;10.938;2022-12-26T17:32:45;128.50;;;64.30;;
41255;SDS011;26989;45.524;10.938;2022-12-26T17:35:15;132.55;;;64.20;;
41255;SDS011;26989;45.524;10.938;2022-12-26T17:37:54;129.15;;;62.00;;
41255;SDS011;26989;45.524;10.938;2022-12-26T17:40:32;96.80;;;48.50;;
41255;SDS011;26989;45.524;10.938;2022-12-26T17:45:37;131.23;;;65.15;;
41255;SDS011;26989;45.524;10.938;2022-12-26T17:48:12;134.07;;;67.50;;
41255;SDS011;26989;45.524;10.938;2022-12-26T17:50:43;129.70;;;67.05;;
41255;SDS011;26989;45.524;10.938;2022-12-26T17:53:24;132.23;;;68.90;;
41255;SDS011;26989;45.524;10.938;2022-12-26T17:55:57;141.15;;;70.13;;
41255;SDS011;26989;45.524;10.938;2022-12-26T17:58:39;142.52;;;69.95;;
41255;SDS011;26989;45.524;10.938;2022-12-26T18:01:15;134.20;;;67.13;;
41255;SDS011;26989;45.524;10.938;2022-12-26T18:03:52;137.38;;;70.18;;
41255;SDS011;26989;45.524;10.938;2022-12-26T18:06:19;134.98;;;71.07;;
41255;SDS011;26989;45.524;10.938;2022-12-26T18:08:47;140.80;;;72.57;;
41255;SDS011;26989;45.524;10.938;2022-12-26T18:11:14;148.73;;;74.28;;
41255;SDS011;26989;45.524;10.938;2022-12-26T18:13:41;143.13;;;72.22;;
41255;SDS011;26989;45.524;10.938;2022-12-26T18:16:10;150.50;;;75.07;;
41255;SDS011;26989;45.524;10.938;2022-12-26T18:18:42;150.02;;;75.70;;
41255;SDS011;26989;45.524;10.938;2022-12-26T18:21:11;144.43;;;73.40;;
41255;SDS011;26989;45.524;10.938;2022-12-26T18:23:40;155.93;;;76.90;;
41255;SDS011;26989;45.524;10.938;2022-12-26T18:26:11;158.82;;;76.05;;
41255;SDS011;26989;45.524;10.938;2022-12-26T18:28:44;150.15;;;76.05;;
41255;SDS011;26989;45.524;10.938;2022-12-26T18:31:13;156.32;;;76.97;;
41255;SDS011;26989;45.524;10.938;2022-12-26T18:33:41;165.13;;;80.40;;
41255;SDS011;26989;45.524;10.938;2022-12-26T18:36:12;159.88;;;81.38;;
41255;SDS011;26989;45.524;10.938;2022-12-26T18:38:40;165.98;;;79.55;;
41255;SDS011;26989;45.524;10.938;2022-12-26T18:41:16;176.68;;;85.07;;
41255;SDS011;26989;45.524;10.938;2022-12-26T18:43:45;165.70;;;84.20;;
41255;SDS011;26989;45.524;10.938;2022-12-26T18:48:46;160.70;;;80.65;;
41255;SDS011;26989;45.524;10.938;2022-12-26T18:51:14;175.20;;;80.80;;
41255;SDS011;26989;45.524;10.938;2022-12-26T18:53:40;166.63;;;81.28;;
41255;SDS011;26989;45.524;10.938;2022-12-26T18:56:11;170.65;;;84.95;;
41255;SDS011;26989;45.524;10.938;2022-12-26T18:58:40;155.70;;;80.05;;
41255;SDS011;26989;45.524;10.938;2022-12-26T19:01:08;161.82;;;79.40;;
41255;SDS011;26989;45.524;10.938;2022-12-26T19:03:39;157.95;;;78.72;;
41255;SDS011;26989;45.524;10.938;2022-12-26T19:06:21;168.98;;;85.03;;
41255;SDS011;26989;45.524;10.938;2022-12-26T19:08:50;170.68;;;83.38;;
41255;SDS011;26989;45.524;10.938;2022-12-26T19:11:17;167.00;;;82.15;;
41255;SDS011;26989;45.524;10.938;2022-12-26T19:13:44;159.43;;;83.00;;
41255;SDS011;26989;45.524;10.938;2022-12-26T19:16:12;160.88;;;83.15;;
41255;SDS011;26989;45.524;10.938;2022-12-26T19:18:40;169.35;;;85.95;;
41255;SDS011;26989;45.524;10.938;2022-12-26T19:21:11;160.48;;;81.60;;
41255;SDS011;26989;45.524;10.938;2022-12-26T19:23:40;172.20;;;84.63;;